createdAt,value
2022-10-28T00:00:34.002Z,100828.31
2022-10-28T00:01:35.719Z,100897.16
2022-10-28T00:02:39.247Z,100898.72
2022-10-28T00:03:43.518Z,100909.97
2022-10-28T00:04:45.305Z,100889.44
2022-10-28T00:05:47.037Z,100866.50
2022-10-28T00:06:48.888Z,100762.13
2022-10-28T00:07:50.751Z,100791.06
2022-10-28T00:08:53.447Z,100762.28
2022-10-28T00:09:55.196Z,100890.41
2022-10-28T00:11:13.559Z,100867.03
2022-10-28T00:12:15.250Z,100899.50
2022-10-28T00:13:16.962Z,100867.09
2022-10-28T00:14:18.712Z,100889.88
2022-10-28T00:15:20.449Z,100840.88
2022-10-28T00:16:25.644Z,100934.00
2022-10-28T00:17:27.349Z,100868.31
2022-10-28T00:18:29.716Z,100799.59
2022-10-28T00:19:31.640Z,100884.94
2022-10-28T00:20:33.424Z,100758.38
2022-10-28T00:21:37.069Z,100794.22
2022-10-28T00:22:38.892Z,100842.75
2022-10-28T00:23:41.023Z,100821.03
2022-10-28T00:24:42.837Z,100797.50
2022-10-28T00:25:44.554Z,100872.41
2022-10-28T00:26:46.361Z,100892.09
2022-10-28T00:27:48.061Z,100762.63
2022-10-28T00:28:54.247Z,100891.59
2022-10-28T00:29:57.064Z,100820.00
2022-10-28T00:31:06.872Z,100762.16
2022-10-28T00:32:08.588Z,100861.28
2022-10-28T00:33:10.382Z,100848.31
2022-10-28T00:34:14.724Z,100836.03
2022-10-28T00:35:16.612Z,100830.28
2022-10-28T00:36:23.964Z,100846.72
2022-10-28T00:37:25.695Z,100726.66
2022-10-28T00:38:30.869Z,100894.25
2022-10-28T00:39:32.776Z,100849.63
2022-10-28T00:40:35.980Z,100911.59
2022-10-28T00:41:40.455Z,100885.63
2022-10-28T00:42:42.360Z,100776.34
2022-10-28T00:43:49.558Z,100878.72
2022-10-28T00:44:54.079Z,100916.28
2022-10-28T00:45:56.461Z,100870.09
2022-10-28T00:46:58.591Z,100893.00
2022-10-28T00:48:03.179Z,100900.22
2022-10-28T00:49:21.464Z,100861.22
2022-10-28T00:50:51.916Z,100894.97
2022-10-28T00:52:14.508Z,100891.59
2022-10-28T00:53:21.087Z,100860.06
2022-10-28T00:54:23.719Z,100782.16
2022-10-28T00:55:26.249Z,100783.47
2022-10-28T00:56:33.754Z,100856.19
2022-10-28T00:57:37.731Z,100861.69
2022-10-28T00:58:39.835Z,100865.75
2022-10-28T00:59:46.177Z,100777.53
2022-10-28T01:00:48.115Z,100815.09
2022-10-28T01:01:50.142Z,100815.91
2022-10-28T01:02:52.219Z,100832.13
2022-10-28T01:03:56.003Z,100897.47
2022-10-28T01:04:58.308Z,100867.81
2022-10-28T01:06:01.503Z,100859.69
2022-10-28T01:07:03.275Z,100846.94
2022-10-28T01:08:06.337Z,100897.59
2022-10-28T01:09:08.125Z,100908.34
2022-10-28T01:10:11.689Z,100778.19
2022-10-28T01:11:31.717Z,100885.53
2022-10-28T01:13:15.769Z,100846.13
2022-10-28T01:14:40.072Z,100828.13
2022-10-28T01:15:51.896Z,100849.31
2022-10-28T01:17:22.381Z,100856.03
2022-10-28T01:18:34.748Z,100882.19
2022-10-28T01:20:06.820Z,100881.34
2022-10-28T01:21:08.502Z,100868.91
2022-10-28T01:22:27.363Z,100822.06
2022-10-28T01:23:49.300Z,100860.50
2022-10-28T01:25:26.684Z,100867.22
2022-10-28T01:26:55.914Z,100864.22
2022-10-28T01:28:00.340Z,100870.94
2022-10-28T01:29:24.842Z,100866.22
2022-10-28T01:30:54.764Z,100832.34
2022-10-28T01:32:14.720Z,100780.00
2022-10-28T01:33:31.004Z,100783.06
2022-10-28T01:35:04.697Z,100848.22
2022-10-28T01:36:15.663Z,100812.69
2022-10-28T01:37:42.088Z,100854.59
2022-10-28T01:39:28.866Z,100803.28
2022-10-28T01:40:37.468Z,100809.50
2022-10-28T01:41:50.375Z,100811.84
2022-10-28T01:43:06.485Z,100810.66
2022-10-28T01:44:30.265Z,100818.84
2022-10-28T01:45:40.924Z,100840.09
2022-10-28T01:46:51.890Z,100733.56
2022-10-28T01:48:00.765Z,100858.72
2022-10-28T01:49:09.324Z,100745.13
2022-10-28T01:50:37.178Z,100861.13
2022-10-28T01:51:52.177Z,100809.44
2022-10-28T01:52:57.460Z,100778.31
2022-10-28T01:54:03.517Z,100804.56
2022-10-28T01:55:17.636Z,100790.94
2022-10-28T01:56:25.024Z,100854.69
2022-10-28T01:57:30.215Z,100780.66
2022-10-28T01:58:33.553Z,100821.38
2022-10-28T01:59:38.045Z,100841.88
2022-10-28T02:00:40.870Z,100814.09
2022-10-28T02:01:42.974Z,100806.84
2022-10-28T02:02:48.135Z,100863.59
2022-10-28T02:03:51.407Z,100844.78
2022-10-28T02:05:04.502Z,100811.97
2022-10-28T02:06:14.473Z,100849.97
2022-10-28T02:07:16.883Z,100819.81
2022-10-28T02:08:18.694Z,100851.66
2022-10-28T02:09:32.459Z,100851.66
2022-10-28T02:10:40.957Z,100695.09
2022-10-28T02:12:04.299Z,100847.63
2022-10-28T02:13:13.287Z,100850.66
2022-10-28T02:14:14.947Z,100847.97
2022-10-28T02:16:19.952Z,100849.66
2022-10-28T02:17:31.444Z,100850.53
2022-10-28T02:18:42.003Z,100850.19
2022-10-28T02:19:54.666Z,100851.31
2022-10-28T02:21:09.895Z,100792.75
2022-10-28T02:22:32.669Z,100794.97
2022-10-28T02:23:46.941Z,100817.00
2022-10-28T02:24:58.993Z,100857.88
2022-10-28T02:26:20.818Z,100850.50
2022-10-28T02:27:31.534Z,100841.59
2022-10-28T02:28:33.529Z,100833.84
2022-10-28T02:29:45.863Z,100786.69
2022-10-28T02:30:58.261Z,100750.69
2022-10-28T02:32:06.214Z,100808.59
2022-10-28T02:33:12.934Z,100809.59
2022-10-28T02:34:20.284Z,100750.03
2022-10-28T02:35:55.669Z,100837.66
2022-10-28T02:37:01.259Z,100803.22
2022-10-28T02:38:07.632Z,100835.34
2022-10-28T02:39:11.193Z,100687.75
2022-10-28T02:40:19.627Z,100730.06
2022-10-28T02:41:24.193Z,100823.94
2022-10-28T02:42:29.835Z,100810.09
2022-10-28T02:43:36.452Z,100786.69
2022-10-28T02:44:48.981Z,100691.47
2022-10-28T02:45:57.056Z,100759.09
2022-10-28T02:47:05.328Z,100754.75
2022-10-28T02:48:32.909Z,100756.06
2022-10-28T02:49:39.540Z,100781.00
2022-10-28T02:50:50.572Z,100829.13
2022-10-28T02:51:58.773Z,100815.13
2022-10-28T02:53:02.763Z,100687.41
2022-10-28T02:54:17.670Z,100799.97
2022-10-28T02:55:23.273Z,100766.81
2022-10-28T02:56:26.259Z,100784.97
2022-10-28T02:57:32.756Z,100784.47
2022-10-28T02:58:41.022Z,100791.22
2022-10-28T02:59:42.833Z,100793.91
2022-10-28T03:00:45.823Z,100815.78
2022-10-28T03:01:47.723Z,100802.44
2022-10-28T03:02:49.571Z,100791.25
2022-10-28T03:03:51.375Z,100832.78
2022-10-28T03:04:53.343Z,100819.13
2022-10-28T03:05:55.064Z,100740.78
2022-10-28T03:06:56.845Z,100819.28
2022-10-28T03:07:58.559Z,100802.44
2022-10-28T03:09:00.284Z,100732.63
2022-10-28T03:10:02.049Z,100652.56
2022-10-28T03:11:03.822Z,100783.97
2022-10-28T03:12:05.714Z,100789.69
2022-10-28T03:13:07.433Z,100659.44
2022-10-28T03:14:11.900Z,100797.09
2022-10-28T03:15:16.291Z,100699.34
2022-10-28T03:16:18.052Z,100708.19
2022-10-28T03:17:19.855Z,100766.16
2022-10-28T03:18:21.583Z,100776.91
2022-10-28T03:19:23.461Z,100810.28
2022-10-28T03:20:25.241Z,100756.88
2022-10-28T03:21:26.997Z,100804.53
2022-10-28T03:22:28.758Z,100756.06
2022-10-28T03:23:30.627Z,100691.78
2022-10-28T03:24:32.439Z,100809.25
2022-10-28T03:25:34.135Z,100669.94
2022-10-28T03:26:35.890Z,100682.00
2022-10-28T03:27:41.144Z,100663.88
2022-10-28T03:28:42.889Z,100677.31
2022-10-28T03:29:45.992Z,100767.53
2022-10-28T03:30:48.046Z,100793.47
2022-10-28T03:31:49.803Z,100750.94
2022-10-28T03:32:51.883Z,100769.56
2022-10-28T03:33:53.888Z,100764.06
2022-10-28T03:34:55.581Z,100731.94
2022-10-28T03:35:57.414Z,100663.81
2022-10-28T03:36:59.103Z,100626.75
2022-10-28T03:38:00.904Z,100792.97
2022-10-28T03:39:02.779Z,100748.03
2022-10-28T03:40:07.958Z,100765.06
2022-10-28T03:41:09.956Z,100704.47
2022-10-28T03:42:11.660Z,100707.28
2022-10-28T03:43:13.374Z,100705.63
2022-10-28T03:44:15.156Z,100650.63
2022-10-28T03:45:17.301Z,100772.44
2022-10-28T03:46:19.106Z,100788.72
2022-10-28T03:47:20.829Z,100767.41
2022-10-28T03:48:22.682Z,100745.34
2022-10-28T03:49:24.461Z,100630.47
2022-10-28T03:50:26.194Z,100656.88
2022-10-28T03:51:27.943Z,100788.59
2022-10-28T03:52:29.640Z,100794.84
2022-10-28T03:53:31.677Z,100645.13
2022-10-28T03:54:33.406Z,100745.38
2022-10-28T03:55:35.192Z,100726.03
2022-10-28T03:56:36.978Z,100782.41
2022-10-28T03:57:38.680Z,100654.84
2022-10-28T03:58:41.469Z,100736.31
2022-10-28T03:59:44.744Z,100737.66
2022-10-28T04:00:50.852Z,100764.72
2022-10-28T04:01:52.710Z,100661.13
2022-10-28T04:02:54.923Z,100735.97
2022-10-28T04:03:56.792Z,100718.16
2022-10-28T04:04:58.502Z,100653.53
2022-10-28T04:06:00.232Z,100738.84
2022-10-28T04:07:01.972Z,100736.97
2022-10-28T04:08:03.813Z,100750.44
2022-10-28T04:09:05.660Z,100730.25
2022-10-28T04:10:07.615Z,100776.19
2022-10-28T04:11:09.421Z,100642.78
2022-10-28T04:12:11.581Z,100782.41
2022-10-28T04:13:13.800Z,100645.09
2022-10-28T04:14:15.691Z,100664.94
2022-10-28T04:15:17.548Z,100642.09
2022-10-28T04:16:19.314Z,100750.09
2022-10-28T04:17:21.114Z,100787.78
2022-10-28T04:18:22.843Z,100738.84
2022-10-28T04:19:24.551Z,100699.09
2022-10-28T04:20:27.404Z,100730.78
2022-10-28T04:21:29.111Z,100642.56
2022-10-28T04:22:30.916Z,100751.06
2022-10-28T04:23:32.759Z,100732.59
2022-10-28T04:24:34.468Z,100756.47
2022-10-28T04:25:36.147Z,100706.06
2022-10-28T04:26:38.129Z,100739.19
2022-10-28T04:27:39.851Z,100636.22
2022-10-28T04:28:41.611Z,100713.47
2022-10-28T04:29:43.292Z,100630.72
2022-10-28T04:30:47.582Z,100719.19
2022-10-28T04:31:52.158Z,100728.78
2022-10-28T04:32:54.273Z,100738.53
2022-10-28T04:33:55.966Z,100735.00
2022-10-28T04:34:57.671Z,100639.94
2022-10-28T04:35:59.449Z,100717.50
2022-10-28T04:37:01.147Z,100630.38
2022-10-28T04:38:02.861Z,100614.25
2022-10-28T04:39:04.673Z,100741.38
2022-10-28T04:40:07.795Z,100755.00
2022-10-28T04:41:13.636Z,100681.19
2022-10-28T04:42:15.634Z,100707.78
2022-10-28T04:43:17.559Z,100711.13
2022-10-28T04:44:19.307Z,100736.84
2022-10-28T04:45:21.089Z,100668.38
2022-10-28T04:46:23.082Z,100759.38
2022-10-28T04:47:24.867Z,100671.44
2022-10-28T04:48:26.637Z,100681.38
2022-10-28T04:49:28.412Z,100595.63
2022-10-28T04:50:30.179Z,100701.41
2022-10-28T04:51:32.017Z,100673.81
2022-10-28T04:52:33.850Z,100704.94
2022-10-28T04:53:35.568Z,100683.59
2022-10-28T04:54:37.317Z,100694.69
2022-10-28T04:55:39.197Z,100682.44
2022-10-28T04:56:40.908Z,100590.09
2022-10-28T04:57:42.789Z,100710.34
2022-10-28T04:58:44.508Z,100729.00
2022-10-28T04:59:46.891Z,100702.41
2022-10-28T05:00:48.710Z,100688.84
2022-10-28T05:01:50.598Z,100727.16
2022-10-28T05:02:52.426Z,100690.69
2022-10-28T05:03:54.712Z,100642.63
2022-10-28T05:05:00.378Z,100689.31
2022-10-28T05:06:02.771Z,100721.78
2022-10-28T05:07:04.535Z,100661.09
2022-10-28T05:08:06.827Z,100693.03
2022-10-28T05:09:08.552Z,100692.03
2022-10-28T05:10:12.167Z,100717.09
2022-10-28T05:11:13.930Z,100580.06
2022-10-28T05:12:15.633Z,100644.66
2022-10-28T05:13:18.560Z,100655.41
2022-10-28T05:14:20.281Z,100649.84
2022-10-28T05:15:22.091Z,100588.34
2022-10-28T05:16:23.846Z,100664.16
2022-10-28T05:17:25.976Z,100579.97
2022-10-28T05:18:27.706Z,100673.09
2022-10-28T05:19:29.385Z,100651.94
2022-10-28T05:20:31.152Z,100684.72
2022-10-28T05:21:32.854Z,100650.06
2022-10-28T05:22:34.626Z,100677.66
2022-10-28T05:23:36.338Z,100670.78
2022-10-28T05:24:38.028Z,100669.59
2022-10-28T05:25:40.868Z,100671.28
2022-10-28T05:26:42.599Z,100542.63
2022-10-28T05:27:44.469Z,100641.53
2022-10-28T05:28:52.048Z,100630.31
2022-10-28T05:29:53.761Z,100657.19
2022-10-28T05:30:55.573Z,100641.25
2022-10-28T05:31:57.445Z,100666.63
2022-10-28T05:33:03.963Z,100699.53
2022-10-28T05:34:05.776Z,100656.22
2022-10-28T05:35:08.667Z,100647.28
2022-10-28T05:36:10.668Z,100680.72
2022-10-28T05:37:12.407Z,100669.97
2022-10-28T05:38:14.624Z,100666.59
2022-10-28T05:39:17.271Z,100671.31
2022-10-28T05:40:19.287Z,100674.50
2022-10-28T05:41:23.165Z,100662.56
2022-10-28T05:42:25.445Z,100678.72
2022-10-28T05:43:27.283Z,100591.41
2022-10-28T05:44:28.999Z,100579.44
2022-10-28T05:45:31.016Z,100662.38
2022-10-28T05:46:32.765Z,100682.19
2022-10-28T05:47:36.516Z,100670.41
2022-10-28T05:48:40.972Z,100661.34
2022-10-28T05:49:42.672Z,100578.28
2022-10-28T05:50:44.428Z,100696.81
2022-10-28T05:51:48.977Z,100666.53
2022-10-28T05:52:53.702Z,100666.53
2022-10-28T05:53:55.545Z,100682.84
2022-10-28T05:54:57.217Z,100692.09
2022-10-28T05:55:58.900Z,100708.19
2022-10-28T05:57:00.629Z,100669.75
2022-10-28T05:58:03.183Z,100656.28
2022-10-28T05:59:04.881Z,100667.72
2022-10-28T06:00:07.256Z,100671.03
2022-10-28T06:01:14.113Z,100627.03
2022-10-28T06:02:16.008Z,100602.66
2022-10-28T06:03:17.840Z,100657.56
2022-10-28T06:04:19.711Z,100647.00
2022-10-28T06:05:21.567Z,100670.84
2022-10-28T06:06:23.481Z,100664.78
2022-10-28T06:07:25.269Z,100664.44
2022-10-28T06:08:27.535Z,100681.88
2022-10-28T06:09:29.489Z,100661.09
2022-10-28T06:10:31.599Z,100570.91
2022-10-28T06:11:33.592Z,100632.38
2022-10-28T06:12:35.721Z,100679.22
2022-10-28T06:13:37.465Z,100584.72
2022-10-28T06:14:39.149Z,100606.53
2022-10-28T06:15:40.970Z,100618.44
2022-10-28T06:16:42.783Z,100656.69
2022-10-28T06:17:47.444Z,100665.25
2022-10-28T06:18:49.153Z,100658.00
2022-10-28T06:19:51.147Z,100661.91
2022-10-28T06:20:54.593Z,100691.59
2022-10-28T06:21:56.327Z,100678.84
2022-10-28T06:22:58.152Z,100675.13
2022-10-28T06:23:59.872Z,100659.00
2022-10-28T06:25:01.678Z,100655.66
2022-10-28T06:26:04.179Z,100641.94
2022-10-28T06:27:06.626Z,100639.56
2022-10-28T06:28:10.372Z,100659.31
2022-10-28T06:29:12.335Z,100690.38
2022-10-28T06:30:14.175Z,100547.72
2022-10-28T06:31:15.921Z,100694.94
2022-10-28T06:32:17.684Z,100573.03
2022-10-28T06:33:19.698Z,100631.16
2022-10-28T06:34:21.431Z,100662.22
2022-10-28T06:35:23.139Z,100667.72
2022-10-28T06:36:24.850Z,100658.31
2022-10-28T06:37:27.044Z,100560.81
2022-10-28T06:38:28.955Z,100622.06
2022-10-28T06:39:30.662Z,100686.91
2022-10-28T06:40:32.428Z,100679.97
2022-10-28T06:41:34.183Z,100662.16
2022-10-28T06:42:35.934Z,100668.22
2022-10-28T06:43:37.643Z,100641.69
2022-10-28T06:44:39.356Z,100646.88
2022-10-28T06:45:41.231Z,100636.16
2022-10-28T06:46:44.589Z,100656.28
2022-10-28T06:47:46.328Z,100571.91
2022-10-28T06:48:48.146Z,100629.75
2022-10-28T06:49:49.902Z,100656.28
2022-10-28T06:50:51.741Z,100683.81
2022-10-28T06:51:53.490Z,100559.97
2022-10-28T06:52:57.197Z,100636.00
2022-10-28T06:53:59.295Z,100585.81
2022-10-28T06:55:01.131Z,100671.06
2022-10-28T06:56:03.016Z,100689.56
2022-10-28T06:57:05.148Z,100677.31
2022-10-28T06:58:06.916Z,100654.34
2022-10-28T06:59:08.892Z,100610.69
2022-10-28T07:00:11.296Z,100670.59
2022-10-28T07:01:13.027Z,100624.94
2022-10-28T07:02:15.916Z,100629.78
2022-10-28T07:03:19.093Z,100669.38
2022-10-28T07:04:20.809Z,100655.97
2022-10-28T07:05:24.937Z,100641.72
2022-10-28T07:06:26.793Z,100698.75
2022-10-28T07:07:28.513Z,100591.56
2022-10-28T07:08:30.276Z,100588.50
2022-10-28T07:09:33.615Z,100676.81
2022-10-28T07:10:35.400Z,100704.34
2022-10-28T07:11:37.306Z,100637.88
2022-10-28T07:12:39.113Z,100698.97
2022-10-28T07:13:42.531Z,100646.91
2022-10-28T07:14:46.053Z,100671.41
2022-10-28T07:15:59.100Z,100685.34
2022-10-28T07:17:01.361Z,100585.81
2022-10-28T07:18:03.106Z,100662.69
2022-10-28T07:19:05.049Z,100679.66
2022-10-28T07:20:07.491Z,100660.66
2022-10-28T07:21:09.563Z,100665.06
2022-10-28T07:22:11.314Z,100558.13
2022-10-28T07:23:13.399Z,100552.75
2022-10-28T07:24:15.140Z,100696.25
2022-10-28T07:25:16.970Z,100529.63
2022-10-28T07:26:18.820Z,100705.00
2022-10-28T07:27:20.628Z,100669.38
2022-10-28T07:28:24.466Z,100684.03
2022-10-28T07:29:26.235Z,100665.56
2022-10-28T07:30:28.854Z,100619.91
2022-10-28T07:31:31.514Z,100665.69
2022-10-28T07:32:33.706Z,100695.06
2022-10-28T07:33:35.533Z,100682.97
2022-10-28T07:34:37.270Z,100539.50
2022-10-28T07:35:39.006Z,100540.16
2022-10-28T07:36:40.876Z,100646.41
2022-10-28T07:37:42.661Z,100663.34
2022-10-28T07:38:44.396Z,100663.34
2022-10-28T07:39:46.269Z,100625.06
2022-10-28T07:40:48.134Z,100695.56
2022-10-28T07:41:49.900Z,100658.63
2022-10-28T07:42:52.405Z,100658.31
2022-10-28T07:43:54.585Z,100646.41
2022-10-28T07:44:56.326Z,100590.03
2022-10-28T07:45:58.486Z,100546.56
2022-10-28T07:47:00.210Z,100666.69
2022-10-28T07:48:02.343Z,100663.69
2022-10-28T07:49:04.594Z,100576.56
2022-10-28T07:50:08.130Z,100693.88
2022-10-28T07:51:12.117Z,100646.56
2022-10-28T07:52:13.886Z,100576.41
2022-10-28T07:54:22.519Z,100622.06
2022-10-28T07:55:24.920Z,100662.31
2022-10-28T07:56:26.653Z,100609.00
2022-10-28T07:57:28.647Z,100557.28
2022-10-28T07:58:30.584Z,100554.78
2022-10-28T07:59:32.280Z,100658.50
2022-10-28T08:00:34.171Z,100669.06
2022-10-28T08:01:36.217Z,100679.00
2022-10-28T08:02:38.126Z,100703.34
2022-10-28T08:03:39.972Z,100706.13
2022-10-28T08:04:41.687Z,100667.41
2022-10-28T08:05:43.883Z,100683.53
2022-10-28T08:06:45.912Z,100654.34
2022-10-28T08:07:48.224Z,100640.59
2022-10-28T08:08:55.333Z,100724.16
2022-10-28T08:09:57.042Z,100652.50
2022-10-28T08:10:58.829Z,100578.97
2022-10-28T08:12:00.876Z,100579.47
2022-10-28T08:13:02.838Z,100703.38
2022-10-28T08:14:04.545Z,100682.84
2022-10-28T08:15:06.669Z,100689.59
2022-10-28T08:16:09.370Z,100737.47
2022-10-28T08:17:11.318Z,100654.66
2022-10-28T08:18:13.019Z,100594.75
2022-10-28T08:19:14.899Z,100585.50
2022-10-28T08:20:16.704Z,100689.06
2022-10-28T08:21:18.431Z,100666.75
2022-10-28T08:22:20.252Z,100683.34
2022-10-28T08:23:21.966Z,100690.72
2022-10-28T08:24:23.776Z,100676.13
2022-10-28T08:25:25.605Z,100658.66
2022-10-28T08:26:27.305Z,100689.06
2022-10-28T08:27:29.051Z,100711.38
2022-10-28T08:28:30.904Z,100594.91
2022-10-28T08:29:32.804Z,100560.31
2022-10-28T08:30:50.310Z,100686.72
2022-10-28T08:31:56.255Z,100679.84
2022-10-28T08:32:58.105Z,100600.13
2022-10-28T08:33:59.873Z,100663.03
2022-10-28T08:35:01.647Z,100699.13
2022-10-28T08:36:03.791Z,100675.78
2022-10-28T08:37:05.760Z,100658.19
2022-10-28T08:38:08.123Z,100694.44
2022-10-28T08:39:09.931Z,100676.28
2022-10-28T08:40:13.396Z,100717.59
2022-10-28T08:41:24.087Z,100725.50
2022-10-28T08:42:32.018Z,100728.88
2022-10-28T08:44:04.549Z,100674.78
2022-10-28T08:45:21.485Z,100727.16
2022-10-28T08:46:38.055Z,100733.41
2022-10-28T08:49:13.272Z,100666.38
2022-10-28T08:50:18.719Z,100696.78
2022-10-28T08:51:38.988Z,100704.03
2022-10-28T08:53:05.757Z,100680.16
2022-10-28T08:54:17.380Z,100714.91
2022-10-28T08:55:28.454Z,100707.50
2022-10-28T08:56:46.317Z,100710.03
2022-10-28T08:57:54.994Z,100691.28
2022-10-28T08:59:01.220Z,100730.22
2022-10-28T09:00:06.154Z,100641.94
2022-10-28T09:01:18.491Z,100703.84
2022-10-28T09:02:23.490Z,100691.75
2022-10-28T09:03:39.239Z,100690.78
2022-10-28T09:04:41.398Z,100727.34
2022-10-28T09:05:47.984Z,100691.59
2022-10-28T09:06:49.822Z,100671.41
2022-10-28T09:07:52.411Z,100699.97
2022-10-28T09:08:55.985Z,100726.19
2022-10-28T09:09:57.974Z,100677.81
2022-10-28T09:10:59.618Z,100719.78
2022-10-28T09:12:16.247Z,100679.50
2022-10-28T09:13:36.870Z,100713.03
2022-10-28T09:15:01.602Z,100670.50
2022-10-28T09:16:21.428Z,100719.75
2022-10-28T09:17:38.025Z,100715.00
2022-10-28T09:18:52.961Z,100716.88
2022-10-28T09:20:07.248Z,100686.47
2022-10-28T09:21:18.578Z,100698.56
2022-10-28T09:22:28.949Z,100713.69
2022-10-28T09:23:56.233Z,100717.72
2022-10-28T09:25:05.023Z,100670.50
2022-10-28T09:26:17.759Z,100712.66
2022-10-28T09:27:37.393Z,100716.22
2022-10-28T09:28:57.591Z,100710.63
2022-10-28T09:30:31.135Z,100710.28
2022-10-28T09:31:47.787Z,100715.50
2022-10-28T09:32:52.985Z,100716.69
2022-10-28T09:34:06.615Z,100712.50
2022-10-28T09:35:19.354Z,100713.34
2022-10-28T09:36:30.857Z,100688.84
2022-10-28T09:37:48.613Z,100670.50
2022-10-28T09:38:55.155Z,100670.50
2022-10-28T09:40:02.830Z,100655.06
2022-10-28T09:41:27.209Z,100680.22
2022-10-28T09:43:57.322Z,100670.00
2022-10-28T09:45:04.420Z,100679.09
2022-10-28T09:46:13.983Z,100715.00
2022-10-28T09:47:20.911Z,100706.84
2022-10-28T09:48:34.513Z,100658.97
2022-10-28T09:49:37.451Z,100692.19
2022-10-28T09:50:39.719Z,100639.16
2022-10-28T09:51:50.495Z,100703.28
2022-10-28T09:53:11.234Z,100695.72
2022-10-28T09:54:14.106Z,100667.00
2022-10-28T09:55:20.640Z,100553.88
2022-10-28T09:56:22.759Z,100678.22
2022-10-28T09:57:30.745Z,100592.22
2022-10-28T09:58:34.746Z,100677.47
2022-10-28T09:59:36.700Z,100588.16
2022-10-28T10:00:38.705Z,100668.06
2022-10-28T10:01:42.798Z,100691.34
2022-10-28T10:02:45.574Z,100675.59
2022-10-28T10:03:50.095Z,100730.72
2022-10-28T10:04:51.954Z,100679.44
2022-10-28T10:05:57.235Z,100690.16
2022-10-28T10:07:12.045Z,100651.03
2022-10-28T10:08:19.338Z,100709.47
2022-10-28T10:09:25.767Z,100590.84
2022-10-28T10:10:50.306Z,100703.53
2022-10-28T10:11:55.832Z,100694.59
2022-10-28T10:13:02.538Z,100700.16
2022-10-28T10:14:08.426Z,100698.47
2022-10-28T10:15:16.779Z,100706.56
2022-10-28T10:16:25.179Z,100644.13
2022-10-28T10:17:32.903Z,100703.88
2022-10-28T10:18:35.035Z,100561.59
2022-10-28T10:20:01.420Z,100693.59
2022-10-28T10:21:03.909Z,100653.78
2022-10-28T10:22:05.626Z,100632.34
2022-10-28T10:23:22.528Z,100681.34
2022-10-28T10:24:28.469Z,100582.72
2022-10-28T10:25:31.228Z,100672.81
2022-10-28T10:26:33.643Z,100652.09
2022-10-28T10:27:35.532Z,100630.81
2022-10-28T10:28:49.295Z,100696.81
2022-10-28T10:29:52.959Z,100648.75
2022-10-28T10:31:00.592Z,100637.16
2022-10-28T10:32:27.752Z,100682.00
2022-10-28T10:33:34.923Z,100668.19
2022-10-28T10:34:37.255Z,100632.63
2022-10-28T10:35:39.113Z,100647.38
2022-10-28T10:36:49.877Z,100644.19
2022-10-28T10:37:52.778Z,100657.00
2022-10-28T10:38:59.946Z,100658.13
2022-10-28T10:40:31.251Z,100688.16
2022-10-28T10:41:44.619Z,100685.28
2022-10-28T10:42:57.598Z,100623.84
2022-10-28T10:44:35.544Z,100642.91
2022-10-28T10:45:37.465Z,100600.38
2022-10-28T10:46:39.280Z,100636.28
2022-10-28T10:47:41.250Z,100648.56
2022-10-28T10:48:43.781Z,100630.06
2022-10-28T10:49:45.706Z,100638.47
2022-10-28T10:50:50.034Z,100614.97
2022-10-28T10:51:57.931Z,100600.72
2022-10-28T10:53:01.662Z,100672.34
2022-10-28T10:54:03.571Z,100641.00
2022-10-28T10:55:08.073Z,100674.38
2022-10-28T10:56:13.177Z,100651.91
2022-10-28T10:57:22.225Z,100618.50
2022-10-28T10:58:27.184Z,100676.69
2022-10-28T10:59:31.148Z,100674.88
2022-10-28T11:00:37.635Z,100650.53
2022-10-28T11:01:40.264Z,100658.91
2022-10-28T11:02:50.047Z,100666.78
2022-10-28T11:05:08.656Z,100636.75
2022-10-28T11:06:24.713Z,100612.03
2022-10-28T11:07:28.408Z,100534.25
2022-10-28T11:08:41.444Z,100666.88
2022-10-28T11:09:47.052Z,100632.50
2022-10-28T11:11:03.970Z,100613.88
2022-10-28T11:12:32.204Z,100601.94
2022-10-28T11:13:35.614Z,100640.19
2022-10-28T11:14:37.485Z,100632.50
2022-10-28T11:15:39.350Z,100536.91
2022-10-28T11:16:50.140Z,100659.00
2022-10-28T11:18:21.307Z,100636.28
2022-10-28T11:19:43.398Z,100659.22
2022-10-28T11:21:02.421Z,100578.41
2022-10-28T11:22:16.165Z,100663.94
2022-10-28T11:23:23.654Z,100659.94
2022-10-28T11:24:55.751Z,100626.38
2022-10-28T11:26:07.026Z,100622.28
2022-10-28T11:27:39.542Z,100676.25
2022-10-28T11:28:50.270Z,100681.63
2022-10-28T11:29:52.576Z,100594.56
2022-10-28T11:31:22.051Z,100682.34
2022-10-28T11:32:29.882Z,100632.13
2022-10-28T11:33:41.458Z,100616.03
2022-10-28T11:35:07.082Z,100676.41
2022-10-28T11:36:22.095Z,100679.09
2022-10-28T11:37:35.527Z,100671.22
2022-10-28T11:38:56.615Z,100627.09
2022-10-28T11:40:35.941Z,100648.66
2022-10-28T11:41:51.289Z,100681.28
2022-10-28T11:43:08.237Z,100675.03
2022-10-28T11:44:23.691Z,100618.00
2022-10-28T11:45:35.482Z,100675.41
2022-10-28T11:46:48.539Z,100643.34
2022-10-28T11:48:27.552Z,100676.25
2022-10-28T11:50:09.830Z,100665.41
2022-10-28T11:51:26.777Z,100665.41
2022-10-28T11:52:45.110Z,100670.13
2022-10-28T11:53:59.127Z,100663.88
2022-10-28T11:55:14.311Z,100667.78
2022-10-28T11:56:34.034Z,100632.41
2022-10-28T11:58:11.222Z,100657.47
2022-10-28T11:59:21.910Z,100665.56
2022-10-28T12:00:48.277Z,100665.56
2022-10-28T12:02:11.055Z,100669.28
2022-10-28T12:03:15.858Z,100670.94
2022-10-28T12:04:19.537Z,100669.63
2022-10-28T12:05:30.848Z,100642.97
2022-10-28T12:07:05.429Z,100634.06
2022-10-28T12:08:28.591Z,100666.88
2022-10-28T12:09:52.308Z,100663.50
2022-10-28T12:11:07.630Z,100624.00
2022-10-28T12:12:23.556Z,100513.19
2022-10-28T12:13:49.354Z,100654.06
2022-10-28T12:15:18.423Z,100676.19
2022-10-28T12:16:38.944Z,100653.47
2022-10-28T12:17:45.685Z,100622.34
2022-10-28T12:18:59.197Z,100664.75
2022-10-28T12:20:30.015Z,100664.00
2022-10-28T12:21:38.697Z,100520.63
2022-10-28T12:22:48.726Z,100647.63
2022-10-28T12:23:52.967Z,100533.56
2022-10-28T12:24:56.900Z,100663.88
2022-10-28T12:26:00.657Z,100584.34
2022-10-28T12:27:15.426Z,100506.22
2022-10-28T12:28:42.940Z,100631.91
2022-10-28T12:29:49.948Z,100506.69
2022-10-28T12:30:52.958Z,100658.97
2022-10-28T12:32:03.171Z,100605.97
2022-10-28T12:33:20.513Z,100640.63
2022-10-28T12:34:32.783Z,100639.91
2022-10-28T12:35:39.462Z,100548.91
2022-10-28T12:36:57.399Z,100503.66
2022-10-28T12:38:19.399Z,100648.66
2022-10-28T12:39:50.236Z,100650.28
2022-10-28T12:41:18.196Z,100654.66
2022-10-28T12:42:31.362Z,100581.44
2022-10-28T12:43:39.150Z,100671.56
2022-10-28T12:44:42.183Z,100628.63
2022-10-28T12:45:47.538Z,100597.59
2022-10-28T12:47:04.417Z,100661.31
2022-10-28T12:48:09.034Z,100661.13
2022-10-28T12:49:26.053Z,100669.19